Time;durP1;ratioP1;P1;durP2;ratioP2;P2;SDS_P1;SDS_P2;PMS_P1;PMS_P2;Temp;Humidity;BMP_temperature;BMP_pressure;BME280_temperature;BME280_humidity;BME280_pressure;Samples;Min_cycle;Max_cycle;Signal;HPM_P1;HPM_P2
2023/08/22 00:01:41;;;;;;;;;8.00;8.00;;;;;25.05;43.59;101446.93;110000;1250;22644;-78
2023/08/22 00:04:07;;;;;;;;;9.33;8.00;;;;;25.02;43.76;101448.15;110025;1265;19300;-78
2023/08/22 00:06:33;;;;;;;;;7.50;7.50;;;;;25.02;43.48;101445.41;109996;1266;19357;-78
2023/08/22 00:08:59;;;;;;;;;8.00;7.50;;;;;25.00;43.52;101446.74;109989;1251;22853;-78
2023/08/22 00:11:27;;;;;;;;;6.50;6.50;;;;;24.97;43.47;101450.04;110043;1265;19684;-78
2023/08/22 00:13:53;;;;;;;;;8.00;8.00;;;;;24.94;43.61;101447.51;110014;1250;21990;-78
2023/08/22 00:16:19;;;;;;;;;8.00;7.00;;;;;24.93;43.54;101450.80;109966;1265;20181;-78
2023/08/22 00:18:45;;;;;;;;;10.00;8.00;;;;;24.92;43.62;101453.22;109965;1266;19306;-77
2023/08/22 00:21:11;;;;;;;;;8.00;8.00;;;;;24.87;43.52;101454.83;110025;1250;22656;-79
2023/08/22 00:23:38;;;;;;;;;10.00;10.00;;;;;24.84;43.68;101455.50;110017;1265;20135;-77
2023/08/22 00:26:04;;;;;;;;;9.00;9.00;;;;;24.81;43.73;101459.34;110013;1266;19487;-77
2023/08/22 00:28:30;;;;;;;;;6.00;6.00;;;;;24.82;43.82;101458.85;110043;1266;21643;-77
2023/08/22 00:30:56;;;;;;;;;10.00;9.00;;;;;24.81;43.39;101461.11;109951;1260;22690;-78
2023/08/22 00:33:22;;;;;;;;;10.00;9.00;;;;;24.77;43.60;101459.14;110007;1251;22594;-78
2023/08/22 00:35:48;;;;;;;;;10.00;10.00;;;;;24.73;43.85;101460.36;109985;1265;23459;-78
2023/08/22 00:38:14;;;;;;;;;9.00;7.00;;;;;24.72;43.77;101460.04;110000;1260;21695;-78
2023/08/22 00:40:40;;;;;;;;;9.00;7.00;;;;;24.71;43.59;101463.83;110010;1251;21216;-78
2023/08/22 00:43:06;;;;;;;;;9.50;9.00;;;;;24.69;43.68;101463.78;110026;1251;20906;-78
2023/08/22 00:45:32;;;;;;;;;7.00;7.00;;;;;24.64;43.60;101461.66;109986;1259;22219;-78
2023/08/22 00:47:58;;;;;;;;;9.00;9.00;;;;;24.62;43.68;101454.81;110074;1266;23125;-78
2023/08/22 00:50:24;;;;;;;;;7.00;7.00;;;;;24.63;43.77;101451.20;110036;1265;22488;-78
2023/08/22 00:52:50;;;;;;;;;10.50;10.00;;;;;24.62;43.78;101450.16;110055;1266;20217;-78
2023/08/22 00:55:17;;;;;;;;;7.00;7.00;;;;;24.58;44.02;101451.11;109982;1250;21127;-77
2023/08/22 00:57:43;;;;;;;;;9.00;7.00;;;;;24.57;43.81;101451.22;109968;1251;21902;-77
2023/08/22 01:00:10;;;;;;;;;10.00;10.00;;;;;24.56;43.79;101447.23;109997;1250;22777;-77
2023/08/22 01:02:36;;;;;;;;;9.50;9.00;;;;;24.52;43.91;101445.80;110016;1259;19497;-77
2023/08/22 01:05:03;;;;;;;;;9.00;9.00;;;;;24.50;44.10;101444.71;109950;1259;23788;-78
2023/08/22 01:07:29;;;;;;;;;8.00;8.00;;;;;24.49;44.06;101442.15;109971;1251;22694;-77
2023/08/22 01:09:55;;;;;;;;;7.00;7.00;;;;;24.53;43.99;101443.45;109947;1259;19609;-77
2023/08/22 01:12:21;;;;;;;;;7.00;7.00;;;;;24.56;43.89;101443.23;109964;1251;20875;-77
2023/08/22 01:14:48;;;;;;;;;9.00;9.00;;;;;24.49;43.98;101440.77;110017;1266;20314;-78
2023/08/22 01:17:14;;;;;;;;;7.00;7.00;;;;;24.48;44.27;101438.20;109992;1251;23000;-78
2023/08/22 01:19:40;;;;;;;;;7.00;7.00;;;;;24.47;44.26;101438.20;110025;1265;21963;-77
2023/08/22 01:22:06;;;;;;;;;9.00;9.00;;;;;24.47;44.09;101440.95;110007;1251;21866;-78
2023/08/22 01:24:32;;;;;;;;;9.00;9.00;;;;;24.45;44.24;101444.63;109952;1251;19237;-78
2023/08/22 01:26:58;;;;;;;;;9.00;7.00;;;;;24.45;44.39;101445.55;109968;1256;20811;-78
2023/08/22 01:29:24;;;;;;;;;10.00;9.00;;;;;24.40;44.48;101443.33;109970;1260;23511;-78
2023/08/22 01:31:50;;;;;;;;;9.00;9.00;;;;;24.39;44.43;101443.92;109943;1265;22888;-78
2023/08/22 01:34:16;;;;;;;;;9.00;7.00;;;;;24.37;44.37;101442.89;109924;1266;19043;-78
2023/08/22 01:36:42;;;;;;;;;10.00;8.00;;;;;24.39;44.46;101443.55;109990;1265;20641;-78
2023/08/22 01:39:08;;;;;;;;;9.00;9.00;;;;;24.38;44.69;101446.51;109996;1251;19676;-78
2023/08/22 01:41:34;;;;;;;;;10.00;9.00;;;;;24.37;44.36;101443.06;109970;1265;19522;-77
2023/08/22 01:44:00;;;;;;;;;9.00;9.00;;;;;24.34;44.47;101440.98;109953;1251;21545;-78
2023/08/22 01:46:26;;;;;;;;;9.00;9.00;;;;;24.28;44.69;101437.61;110010;1252;22949;-77
2023/08/22 01:48:52;;;;;;;;;9.00;7.00;;;;;24.29;44.49;101439.90;110005;1251;20519;-78
2023/08/22 01:51:18;;;;;;;;;13.00;11.00;;;;;24.25;44.69;101429.42;109991;1260;21797;-78
2023/08/22 01:53:44;;;;;;;;;6.00;6.00;;;;;24.20;44.94;101433.98;109970;1260;19204;-77
2023/08/22 01:56:10;;;;;;;;;9.00;8.00;;;;;24.18;45.06;101435.56;110015;1265;19389;-78
2023/08/22 01:58:36;;;;;;;;;9.50;9.00;;;;;24.17;45.12;101434.38;110019;1266;21554;-78
2023/08/22 02:01:03;;;;;;;;;10.00;10.00;;;;;24.20;44.99;101427.52;110034;1260;19326;-78
2023/08/22 02:03:29;;;;;;;;;10.00;10.00;;;;;24.18;45.09;101423.73;109990;1266;23280;-78
2023/08/22 02:05:55;;;;;;;;;9.00;8.00;;;;;24.19;45.09;101428.88;110037;1265;20180;-78
2023/08/22 02:08:21;;;;;;;;;8.33;7.00;;;;;24.19;45.07;101435.57;109971;1259;19207;-78
2023/08/22 02:10:47;;;;;;;;;10.00;10.00;;;;;24.18;44.92;101440.00;109981;1250;20789;-78
2023/08/22 02:13:13;;;;;;;;;9.00;8.00;;;;;24.20;44.97;101440.98;109983;1266;21970;-78
2023/08/22 02:15:39;;;;;;;;;10.00;9.00;;;;;24.18;45.10;101438.03;110056;1251;20049;-77
2023/08/22 02:18:05;;;;;;;;;9.00;9.00;;;;;24.14;44.89;101439.46;110032;1251;23410;-78
2023/08/22 02:20:31;;;;;;;;;10.00;10.00;;;;;24.12;45.05;101438.31;110028;1250;22489;-78
2023/08/22 02:22:58;;;;;;;;;8.00;7.00;;;;;24.09;45.27;101441.61;109934;1266;18915;-78
2023/08/22 02:25:24;;;;;;;;;11.00;10.00;;;;;24.05;45.18;101441.28;110047;1251;21953;-78
2023/08/22 02:27:50;;;;;;;;;9.00;9.00;;;;;24.07;45.25;101437.23;109971;1266;21621;-78
2023/08/22 02:30:16;;;;;;;;;9.00;9.00;;;;;24.04;45.28;101442.16;109976;1266;18976;-78
2023/08/22 02:32:42;;;;;;;;;10.00;9.00;;;;;24.04;45.61;101440.13;110044;1251;20757;-77
2023/08/22 02:35:08;;;;;;;;;9.00;9.00;;;;;23.98;45.58;101442.70;109994;1250;21637;-77
2023/08/22 02:37:34;;;;;;;;;9.00;9.00;;;;;23.97;45.69;101440.64;109983;1250;21170;-78
2023/08/22 02:40:00;;;;;;;;;10.00;9.00;;;;;23.92;45.69;101437.58;109981;1266;22707;-78
2023/08/22 02:42:26;;;;;;;;;9.00;9.00;;;;;23.97;45.76;101432.38;109967;1250;23502;-78
2023/08/22 02:44:52;;;;;;;;;11.00;10.00;;;;;23.93;45.90;101430.77;109937;1266;19146;-78
2023/08/22 02:47:18;;;;;;;;;10.00;9.00;;;;;23.90;45.88;101431.45;109974;1250;20924;-78
2023/08/22 02:49:44;;;;;;;;;11.00;10.50;;;;;23.86;46.14;101432.05;109960;1250;20164;-78
2023/08/22 02:52:10;;;;;;;;;9.50;8.00;;;;;23.85;46.33;101430.30;110007;1250;21292;-77
2023/08/22 02:54:36;;;;;;;;;9.00;9.00;;;;;23.88;46.09;101428.38;110011;1250;23717;-78
2023/08/22 02:57:02;;;;;;;;;10.00;9.00;;;;;23.84;46.28;101426.46;109988;1259;20139;-78
2023/08/22 02:59:29;;;;;;;;;9.00;9.00;;;;;23.82;46.34;101428.71;110007;1250;19809;-78
2023/08/22 03:01:55;;;;;;;;;9.67;9.00;;;;;23.83;46.10;101431.61;109998;1265;20896;-78
2023/08/22 03:04:21;;;;;;;;;10.00;10.00;;;;;23.82;46.43;101429.48;109975;1266;23071;-78
2023/08/22 03:06:47;;;;;;;;;11.00;11.00;;;;;23.80;46.53;101431.01;109948;1266;22407;-78
2023/08/22 03:09:13;;;;;;;;;10.00;9.00;;;;;23.78;46.52;101433.04;109965;1266;23572;-78
2023/08/22 03:11:39;;;;;;;;;15.00;11.00;;;;;23.76;46.58;101431.45;110010;1266;20382;-78
2023/08/22 03:14:06;;;;;;;;;13.00;13.00;;;;;23.70;46.75;101430.63;109990;1266;22402;-77
2023/08/22 03:16:32;;;;;;;;;11.00;11.00;;;;;23.65;46.85;101425.59;109993;1251;19574;-77
2023/08/22 03:18:58;;;;;;;;;10.50;10.50;;;;;23.63;46.94;101423.30;110021;1250;21681;-79
2023/08/22 03:21:24;;;;;;;;;10.00;9.50;;;;;23.59;47.30;101419.30;110014;1259;19231;-79
2023/08/22 03:23:50;;;;;;;;;11.00;10.00;;;;;23.58;47.31;101418.38;110053;1250;20785;-78
2023/08/22 03:26:16;;;;;;;;;10.00;10.00;;;;;23.54;47.39;101415.35;110068;1266;20228;-78
2023/08/22 03:28:42;;;;;;;;;10.00;9.00;;;;;23.56;47.43;101410.55;110041;1251;20142;-78
2023/08/22 03:31:08;;;;;;;;;10.00;10.00;;;;;23.54;47.42;101415.08;109975;1266;19433;-78
2023/08/22 03:33:34;;;;;;;;;9.50;9.50;;;;;23.51;47.51;101417.57;109986;1251;21470;-80
2023/08/22 03:36:00;;;;;;;;;11.00;11.00;;;;;23.50;47.81;101414.28;109997;1259;19941;-79
2023/08/22 03:38:26;;;;;;;;;11.00;10.00;;;;;23.48;47.63;101416.20;110035;1265;23360;-79
2023/08/22 03:40:52;;;;;;;;;13.50;12.50;;;;;23.48;47.79;101414.56;110011;1265;23288;-79
2023/08/22 03:43:18;;;;;;;;;11.00;10.50;;;;;23.49;47.88;101413.42;109957;1251;23105;-78
2023/08/22 03:45:44;;;;;;;;;11.00;11.00;;;;;23.45;47.89;101407.23;110009;1266;23054;-78
2023/08/22 03:48:10;;;;;;;;;10.00;10.00;;;;;23.42;48.11;101409.69;109985;1266;20157;-78
2023/08/22 03:50:36;;;;;;;;;10.00;9.00;;;;;23.40;48.29;101405.25;109953;1251;22104;-78
2023/08/22 03:53:02;;;;;;;;;14.00;13.50;;;;;23.40;48.26;101404.21;109975;1251;20938;-78
2023/08/22 03:55:28;;;;;;;;;12.00;10.00;;;;;23.38;48.25;101401.31;110012;1265;21761;-77
2023/08/22 03:57:54;;;;;;;;;12.00;11.00;;;;;23.37;48.51;101405.96;110050;1259;19890;-78
2023/08/22 04:00:20;;;;;;;;;11.00;11.00;;;;;23.35;48.42;101408.69;110005;1265;19352;-79
2023/08/22 04:02:46;;;;;;;;;12.00;11.00;;;;;23.38;48.23;101404.05;109977;1251;21647;-79
2023/08/22 04:05:12;;;;;;;;;10.00;10.00;;;;;23.39;48.23;101413.95;109930;1265;19513;-79
2023/08/22 04:07:38;;;;;;;;;13.00;13.00;;;;;23.40;48.18;101411.82;109976;1250;19656;-80
2023/08/22 04:10:04;;;;;;;;;12.50;12.50;;;;;23.36;48.13;101412.85;109985;1251;23048;-80
2023/08/22 04:12:30;;;;;;;;;14.00;14.00;;;;;23.35;47.94;101409.52;110020;1260;20020;-79
2023/08/22 04:14:56;;;;;;;;;13.00;13.00;;;;;23.30;48.38;101413.84;110020;1265;23624;-79
2023/08/22 04:17:23;;;;;;;;;13.00;13.00;;;;;23.31;48.46;101407.05;110012;1265;22994;-79
2023/08/22 04:19:49;;;;;;;;;14.00;13.00;;;;;23.20;48.70;101403.98;110041;1251;23669;-79
2023/08/22 04:22:15;;;;;;;;;13.00;13.00;;;;;23.09;49.04;101400.35;110028;1266;23505;-79
2023/08/22 04:24:41;;;;;;;;;13.00;13.00;;;;;23.04;49.25;101406.83;110010;1251;23661;-79
2023/08/22 04:27:07;;;;;;;;;15.00;14.00;;;;;22.92;49.56;101406.36;109933;1266;22946;-79
2023/08/22 04:29:33;;;;;;;;;17.00;14.00;;;;;22.76;49.89;101403.39;109990;1266;23822;-78
2023/08/22 04:32:01;;;;;;;;;13.50;12.50;;;;;22.80;49.75;101408.95;109970;1265;20516;-79
2023/08/22 04:34:27;;;;;;;;;13.00;13.00;;;;;22.72;50.12;101415.89;109986;1265;21228;-79
2023/08/22 04:36:53;;;;;;;;;11.50;11.00;;;;;22.66;50.23;101417.06;110020;1252;21074;-79
2023/08/22 04:39:19;;;;;;;;;13.00;13.00;;;;;22.63;50.05;101414.80;110005;1259;21451;-77
2023/08/22 04:41:45;;;;;;;;;13.00;12.00;;;;;22.58;50.28;101411.56;110014;1265;19171;-78
2023/08/22 04:44:12;;;;;;;;;;;;;;;22.62;50.08;101406.55;109966;1251;20774;-79
2023/08/22 04:46:38;;;;;;;;;15.00;15.00;;;;;22.61;49.96;101410.21;109960;1251;22658;-79
2023/08/22 04:49:04;;;;;;;;;15.00;13.00;;;;;22.60;50.04;101415.98;110026;1258;19255;-79
2023/08/22 04:51:30;;;;;;;;;12.50;12.50;;;;;22.60;50.06;101417.52;110017;1250;19483;-78
2023/08/22 04:53:56;;;;;;;;;15.50;14.00;;;;;22.66;50.07;101418.26;109954;1265;20395;-79
2023/08/22 04:56:22;;;;;;;;;16.00;15.00;;;;;22.64;50.17;101419.12;109941;1251;20826;-79
2023/08/22 04:58:48;;;;;;;;;13.00;13.00;;;;;22.63;50.51;101411.36;109970;1266;23070;-78
2023/08/22 05:01:14;;;;;;;;;16.00;16.00;;;;;22.59;50.59;101407.96;109988;1251;21250;-78
2023/08/22 05:03:40;;;;;;;;;16.00;13.00;;;;;22.38;51.19;101415.00;110028;1260;23189;-77
2023/08/22 05:06:06;;;;;;;;;17.00;16.33;;;;;22.15;52.02;101419.40;110007;1260;23499;-78
2023/08/22 05:08:32;;;;;;;;;17.00;16.00;;;;;21.99;52.64;101419.33;110069;1251;22713;-78
2023/08/22 05:10:58;;;;;;;;;17.00;15.00;;;;;21.88;53.18;101422.40;110021;1251;23118;-77
2023/08/22 05:13:24;;;;;;;;;15.00;15.00;;;;;21.83;53.53;101420.46;109965;1265;19400;-76
2023/08/22 05:15:50;;;;;;;;;11.50;11.50;;;;;21.90;53.63;101418.82;109980;1266;21358;-75
2023/08/22 05:18:16;;;;;;;;;12.00;12.00;;;;;22.65;51.60;101422.79;109930;1251;21233;-69
2023/08/22 05:20:42;;;;;;;;;10.00;10.00;;;;;23.09;50.66;101419.80;109947;1251;20774;-69
2023/08/22 05:23:08;;;;;;;;;12.00;11.00;;;;;23.31;49.94;101421.70;109935;1251;21431;-75
2023/08/22 05:25:34;;;;;;;;;13.00;13.00;;;;;23.46;49.51;101427.14;110008;1260;21225;-72
2023/08/22 05:28:00;;;;;;;;;12.00;10.00;;;;;23.53;49.40;101428.09;110019;1265;19435;-70
2023/08/22 05:30:26;;;;;;;;;104.50;84.50;;;;;23.63;49.85;101432.42;110002;1250;23301;-70
2023/08/22 05:32:52;;;;;;;;;294.50;212.50;;;;;23.73;49.21;101435.01;109948;1266;20062;-72
2023/08/22 05:35:18;;;;;;;;;311.33;230.67;;;;;23.83;48.88;101438.40;109966;1265;23090;-71
2023/08/22 05:37:44;;;;;;;;;243.33;178.33;;;;;23.90;48.84;101437.24;110029;1265;22463;-71
2023/08/22 05:40:11;;;;;;;;;110.00;82.50;;;;;23.96;48.56;101434.13;110006;1265;22988;-82
2023/08/22 05:42:37;;;;;;;;;39.00;34.50;;;;;23.83;48.46;101431.27;110028;1250;23101;-78
2023/08/22 05:45:03;;;;;;;;;29.00;23.00;;;;;23.57;48.97;101434.66;110045;1251;22868;-78
2023/08/22 05:47:29;;;;;;;;;17.00;15.00;;;;;23.33;49.47;101441.50;110052;1265;19710;-77
2023/08/22 05:49:55;;;;;;;;;18.00;14.00;;;;;23.10;49.81;101444.55;109983;1265;20735;-77
2023/08/22 05:52:25;;;;;;;;;17.00;16.00;;;;;22.81;50.60;101439.00;109968;1250;21697;-79
2023/08/22 05:54:51;;;;;;;;;13.67;13.00;;;;;22.83;50.79;101444.30;109953;1265;19951;-78
2023/08/22 05:57:17;;;;;;;;;14.00;13.00;;;;;22.77;50.83;101448.20;109912;1251;23920;-78
2023/08/22 05:59:43;;;;;;;;;16.00;16.00;;;;;22.83;50.87;101449.12;109968;1250;21632;-78
2023/08/22 06:02:09;;;;;;;;;13.00;13.00;;;;;22.88;51.01;101451.69;109990;1260;20083;-77
2023/08/22 06:04:35;;;;;;;;;14.00;12.00;;;;;22.76;51.12;101450.86;109976;1266;19447;-76
2023/08/22 06:07:01;;;;;;;;;12.50;12.00;;;;;22.80;51.01;101448.33;109963;1251;21655;-77
2023/08/22 06:09:27;;;;;;;;;13.00;12.00;;;;;22.82;50.95;101442.83;109965;1251;20030;-81
2023/08/22 06:11:53;;;;;;;;;10.00;10.00;;;;;22.77;50.85;101447.21;109961;1251;20904;-80
2023/08/22 06:14:19;;;;;;;;;16.00;13.00;;;;;22.91;50.94;101445.75;109987;1266;20120;-79
2023/08/22 06:16:45;;;;;;;;;13.00;13.00;;;;;22.90;51.14;101441.60;109959;1251;20099;-78
2023/08/22 06:19:11;;;;;;;;;15.00;14.00;;;;;22.88;51.28;101436.51;109983;1258;19622;-79
2023/08/22 06:21:37;;;;;;;;;14.00;12.50;;;;;22.86;51.38;101438.64;109986;1266;21555;-82
2023/08/22 06:24:04;;;;;;;;;10.00;10.00;;;;;23.11;50.70;101440.79;110025;1251;19964;-88
2023/08/22 06:26:30;;;;;;;;;12.00;10.00;;;;;23.16;50.96;101442.83;110061;1250;22022;-84
2023/08/22 06:28:56;;;;;;;;;9.00;9.00;;;;;23.34;50.40;101439.64;110068;1266;20568;-82
2023/08/22 06:31:23;;;;;;;;;10.00;10.00;;;;;23.41;50.24;101440.48;110025;1259;22517;-87
2023/08/22 06:33:49;;;;;;;;;11.00;9.50;;;;;23.47;50.37;101439.39;110096;1251;22202;-89
2023/08/22 06:36:15;;;;;;;;;11.00;9.00;;;;;23.51;50.08;101438.04;110089;1251;20395;-82
2023/08/22 06:38:41;;;;;;;;;9.67;9.67;;;;;23.61;49.81;101434.18;110003;1260;19190;-78
2023/08/22 06:41:07;;;;;;;;;8.67;8.67;;;;;23.49;50.20;101436.01;110019;1265;20552;-78
2023/08/22 06:43:33;;;;;;;;;9.00;9.00;;;;;23.48;50.29;101435.73;110003;1265;20385;-78
2023/08/22 06:45:59;;;;;;;;;9.00;9.00;;;;;23.39;50.39;101439.16;109940;1266;19288;-79
2023/08/22 06:48:25;;;;;;;;;10.00;9.00;;;;;23.45;50.36;101436.33;109957;1250;19511;-77
2023/08/22 06:50:52;;;;;;;;;10.00;10.00;;;;;23.49;50.29;101439.71;109958;1258;22883;-80
2023/08/22 06:53:18;;;;;;;;;8.00;6.00;;;;;23.58;50.31;101432.20;109935;1258;23665;-78
2023/08/22 06:55:44;;;;;;;;;10.00;8.50;;;;;23.94;49.61;101421.64;110090;1250;20830;-76
2023/08/22 06:58:10;;;;;;;;;9.00;7.00;;;;;23.75;49.47;101412.41;109969;1265;23189;-77
2023/08/22 07:00:36;;;;;;;;;6.00;6.00;;;;;23.73;49.21;101410.21;109986;1250;23599;-77
2023/08/22 07:03:02;;;;;;;;;8.50;8.50;;;;;23.71;48.86;101411.04;109952;1251;22120;-78
2023/08/22 07:05:28;;;;;;;;;9.00;7.00;;;;;23.94;48.44;101419.07;109975;1251;21710;-81
2023/08/22 07:07:54;;;;;;;;;8.67;8.00;;;;;23.98;48.43;101418.46;109947;1250;19692;-77
2023/08/22 07:10:20;;;;;;;;;8.00;8.00;;;;;24.04;48.23;101422.95;109932;1250;20464;-77
2023/08/22 07:12:46;;;;;;;;;9.50;9.00;;;;;23.97;48.23;101421.15;109950;1259;21303;-77
2023/08/22 07:15:12;;;;;;;;;8.50;8.50;;;;;24.10;47.83;101421.23;109960;1251;19752;-76
2023/08/22 07:17:38;;;;;;;;;8.00;7.00;;;;;24.13;48.25;101421.28;109981;1266;19436;-76
2023/08/22 07:20:04;;;;;;;;;7.00;7.00;;;;;24.15;48.13;101419.59;109958;1260;23730;-75
2023/08/22 07:22:30;;;;;;;;;9.50;9.00;;;;;24.30;47.99;101417.45;109969;1266;23753;-76
2023/08/22 07:24:56;;;;;;;;;8.00;6.50;;;;;24.42;47.28;101416.76;109957;1251;23285;-76
2023/08/22 07:27:22;;;;;;;;;7.00;7.00;;;;;24.39;46.98;101415.23;109987;1250;23170;-76
2023/08/22 07:29:49;;;;;;;;;6.50;6.00;;;;;24.49;46.48;101412.46;110013;1250;22203;-77
2023/08/22 07:32:15;;;;;;;;;9.00;9.00;;;;;24.66;46.21;101410.70;109870;1265;211635;-75
2023/08/22 07:34:41;;;;;;;;;6.00;5.00;;;;;24.69;45.67;101405.20;109999;1260;20343;-75
2023/08/22 07:37:07;;;;;;;;;6.00;6.00;;;;;24.84;44.87;101397.19;110007;1250;19730;-75
2023/08/22 07:39:33;;;;;;;;;6.00;6.00;;;;;24.86;44.75;101396.95;110002;1266;19323;-75
2023/08/22 07:41:59;;;;;;;;;6.00;5.00;;;;;24.96;44.45;101396.37;110008;1250;20329;-77
2023/08/22 07:44:25;;;;;;;;;6.00;6.00;;;;;25.18;44.23;101398.83;109996;1252;19469;-73
2023/08/22 07:46:51;;;;;;;;;6.00;5.00;;;;;25.09;44.08;101394.81;109990;1250;22194;-74
2023/08/22 07:49:17;;;;;;;;;7.00;6.50;;;;;24.78;44.44;101394.14;109998;1250;22792;-75
2023/08/22 07:51:43;;;;;;;;;5.50;5.50;;;;;24.64;44.44;101388.61;110011;1266;19925;-74
2023/08/22 07:54:09;;;;;;;;;7.00;7.00;;;;;24.47;44.47;101384.75;110023;1265;20744;-74
2023/08/22 07:56:35;;;;;;;;;5.00;5.00;;;;;24.82;44.43;101383.49;110048;1258;22773;-74
2023/08/22 07:59:01;;;;;;;;;6.00;6.00;;;;;24.99;42.67;101368.17;110040;1266;19477;-74
2023/08/22 08:01:27;;;;;;;;;5.00;5.00;;;;;24.92;41.57;101361.73;110010;1265;21544;-74
2023/08/22 08:03:53;;;;;;;;;5.00;5.00;;;;;24.88;41.47;101358.64;110018;1251;21483;-74
2023/08/22 08:06:19;;;;;;;;;5.00;5.00;;;;;24.75;41.46;101367.75;110002;1266;19227;-74
2023/08/22 08:08:45;;;;;;;;;3.00;3.00;;;;;24.85;41.94;101370.11;110027;1250;20706;-74
2023/08/22 08:11:11;;;;;;;;;6.00;6.00;;;;;24.85;42.42;101378.38;110003;1265;19858;-74
2023/08/22 08:13:38;;;;;;;;;7.00;6.00;;;;;24.65;42.94;101386.92;110029;1250;19667;-74
2023/08/22 08:16:04;;;;;;;;;6.00;5.50;;;;;24.64;43.46;101386.22;109999;1265;20629;-75
2023/08/22 08:18:30;;;;;;;;;7.00;6.00;;;;;24.65;43.24;101380.02;110020;1251;22928;-74
2023/08/22 08:20:56;;;;;;;;;6.00;6.00;;;;;24.63;42.76;101373.29;110014;1265;21682;-74
2023/08/22 08:23:22;;;;;;;;;5.50;5.50;;;;;24.72;42.17;101365.30;110046;1251;20751;-74
2023/08/22 08:25:49;;;;;;;;;5.00;5.00;;;;;24.94;41.90;101368.48;109998;1251;23528;-75
2023/08/22 08:28:15;;;;;;;;;5.00;5.00;;;;;25.04;41.01;101357.09;110023;1251;19682;-75
2023/08/22 08:30:41;;;;;;;;;5.00;3.00;;;;;25.23;39.98;101350.75;110025;1266;21212;-74
2023/08/22 08:33:07;;;;;;;;;3.00;3.00;;;;;25.33;38.90;101347.39;110007;1266;23253;-73
2023/08/22 08:35:33;;;;;;;;;3.00;3.00;;;;;25.28;38.19;101342.00;110038;1266;19329;-74
2023/08/22 08:37:59;;;;;;;;;3.00;3.00;;;;;24.92;37.73;101343.33;110021;1265;19553;-74
2023/08/22 08:40:25;;;;;;;;;3.00;3.00;;;;;25.07;37.75;101349.88;110028;1265;20160;-74
2023/08/22 08:42:51;;;;;;;;;5.00;3.00;;;;;25.26;37.76;101347.00;110029;1266;19220;-75
2023/08/22 08:45:17;;;;;;;;;3.00;3.00;;;;;25.40;36.92;101346.00;110036;1259;19451;-75
2023/08/22 08:47:43;;;;;;;;;3.00;3.00;;;;;25.47;35.82;101351.81;110017;1265;20150;-75
2023/08/22 08:50:09;;;;;;;;;3.00;3.00;;;;;25.90;35.61;101352.77;110010;1265;19120;-74
2023/08/22 08:52:35;;;;;;;;;2.67;2.67;;;;;25.85;35.93;101356.50;110010;1265;21828;-75
2023/08/22 08:55:03;;;;;;;;;4.00;3.00;;;;;25.72;35.40;101353.38;110026;1251;22765;-74
2023/08/22 08:57:29;;;;;;;;;2.67;2.67;;;;;25.68;34.78;101350.55;110018;1266;19529;-74
2023/08/22 08:59:56;;;;;;;;;4.00;3.00;;;;;25.99;34.80;101353.10;110046;1265;20804;-74
2023/08/22 09:02:22;;;;;;;;;3.00;3.00;;;;;26.00;34.75;101356.21;110017;1266;21462;-75
2023/08/22 09:04:49;;;;;;;;;5.00;3.00;;;;;25.93;34.23;101364.36;109998;1251;19858;-75
2023/08/22 09:07:15;;;;;;;;;2.50;2.50;;;;;25.86;33.34;101364.83;110011;1266;19499;-75
2023/08/22 09:09:41;;;;;;;;;4.00;3.00;;;;;25.90;33.25;101366.54;110036;1266;20179;-74
2023/08/22 09:12:07;;;;;;;;;3.00;2.50;;;;;25.83;33.30;101363.20;109975;1250;19000;-75
2023/08/22 09:14:34;;;;;;;;;3.00;2.00;;;;;26.02;33.19;101366.34;110027;1260;19322;-76
2023/08/22 09:17:00;;;;;;;;;3.00;3.00;;;;;26.12;32.90;101368.52;110026;1251;21663;-75
2023/08/22 09:19:26;;;;;;;;;2.00;2.00;;;;;26.32;32.88;101362.61;110028;1266;19237;-76
2023/08/22 09:21:52;;;;;;;;;2.50;2.50;;;;;26.31;32.30;101361.18;109993;1250;22729;-75
2023/08/22 09:24:18;;;;;;;;;3.00;2.00;;;;;25.97;31.15;101356.13;110006;1251;21609;-75
2023/08/22 09:26:44;;;;;;;;;2.00;2.00;;;;;25.77;30.39;101353.77;109967;1250;19430;-73
2023/08/22 09:29:11;;;;;;;;;2.00;2.00;;;;;25.60;30.64;101350.50;110003;1251;20787;-76
2023/08/22 09:31:37;;;;;;;;;2.00;2.00;;;;;25.62;30.84;101350.61;110007;1266;21715;-75
2023/08/22 09:34:03;;;;;;;;;2.50;2.50;;;;;25.66;31.56;101346.30;109988;1251;19591;-75
2023/08/22 09:36:29;;;;;;;;;3.00;3.00;;;;;25.67;32.00;101342.62;110020;1250;20809;-75
2023/08/22 09:38:55;;;;;;;;;4.00;3.00;;;;;25.67;32.79;101335.24;110002;1250;21693;-73
2023/08/22 09:41:22;;;;;;;;;3.00;3.00;;;;;25.72;32.64;101333.45;110010;1266;19327;-74
2023/08/22 09:43:48;;;;;;;;;3.00;3.00;;;;;25.57;33.05;101325.40;109990;1265;20888;-74
2023/08/22 09:46:14;;;;;;;;;2.00;2.00;;;;;25.63;33.36;101321.61;109980;1250;21901;-75
2023/08/22 09:48:40;;;;;;;;;5.00;3.00;;;;;25.86;33.16;101317.83;110015;1250;23138;-74
2023/08/22 09:51:07;;;;;;;;;2.00;2.00;;;;;25.78;33.37;101325.71;110005;1265;23282;-74
2023/08/22 09:53:34;;;;;;;;;6.00;5.00;;;;;25.73;34.11;101318.85;110038;1251;23428;-74
2023/08/22 09:56:00;;;;;;;;;3.00;2.00;;;;;25.75;34.44;101319.81;110017;1251;19209;-74
2023/08/22 09:58:26;;;;;;;;;3.00;3.00;;;;;25.83;34.00;101317.33;110019;1265;20690;-75
2023/08/22 10:00:52;;;;;;;;;5.50;5.50;;;;;25.82;34.96;101314.97;110014;1266;21705;-74
2023/08/22 10:03:18;;;;;;;;;6.00;6.00;;;;;25.84;35.78;101320.33;109987;1259;19156;-74
2023/08/22 10:05:44;;;;;;;;;6.50;6.00;;;;;26.05;35.71;101324.45;109958;1250;19510;-74
2023/08/22 10:08:10;;;;;;;;;6.50;5.50;;;;;26.02;35.38;101324.06;109921;1251;21400;-75
2023/08/22 10:10:36;;;;;;;;;7.00;7.00;;;;;25.81;35.69;101321.18;109978;1251;23164;-75
2023/08/22 10:13:02;;;;;;;;;8.00;8.00;;;;;25.71;35.68;101322.54;109946;1250;22286;-75
2023/08/22 10:15:29;;;;;;;;;6.50;6.50;;;;;25.63;35.55;101325.19;109987;1265;20019;-75
2023/08/22 10:17:55;;;;;;;;;4.00;4.00;;;;;25.74;35.74;101315.71;110004;1251;19325;-76
2023/08/22 10:20:21;;;;;;;;;6.00;6.00;;;;;26.04;35.88;101319.91;109986;1266;19520;-76
2023/08/22 10:22:47;;;;;;;;;7.00;7.00;;;;;25.98;35.37;101320.81;110014;1250;21622;-75
2023/08/22 10:25:13;;;;;;;;;5.50;5.50;;;;;25.54;35.35;101308.75;110003;1266;19623;-75
2023/08/22 10:27:40;;;;;;;;;5.00;5.00;;;;;25.50;35.75;101315.64;110006;1265;19457;-75
2023/08/22 10:30:06;;;;;;;;;6.50;6.00;;;;;25.66;36.09;101319.52;109984;1259;20135;-75
2023/08/22 10:32:32;;;;;;;;;5.00;5.00;;;;;25.74;35.76;101317.14;109984;1265;23029;-75
2023/08/22 10:34:58;;;;;;;;;6.00;6.00;;;;;25.73;35.70;101317.09;110002;1265;19551;-75
2023/08/22 10:37:25;;;;;;;;;6.33;6.33;;;;;25.69;35.97;101310.77;110031;1266;20367;-75
2023/08/22 10:39:51;;;;;;;;;7.00;6.00;;;;;25.60;36.17;101310.89;110020;1251;22968;-75
2023/08/22 10:42:17;;;;;;;;;8.00;6.00;;;;;25.58;36.32;101313.91;109998;1266;22541;-77
2023/08/22 10:44:43;;;;;;;;;6.00;6.00;;;;;25.57;36.24;101313.93;110006;1251;22783;-77
2023/08/22 10:47:09;;;;;;;;;11.00;8.00;;;;;25.63;35.84;101318.38;110000;1251;19696;-75
2023/08/22 10:49:35;;;;;;;;;6.00;5.00;;;;;25.64;35.78;101316.29;110010;1266;19541;-78
2023/08/22 10:52:01;;;;;;;;;5.00;5.00;;;;;25.71;35.75;101321.94;110021;1265;20275;-77
2023/08/22 10:54:27;;;;;;;;;6.50;6.00;;;;;25.79;35.72;101312.59;110016;1265;19563;-76
2023/08/22 10:56:53;;;;;;;;;6.00;5.00;;;;;25.82;36.00;101312.50;110027;1250;20774;-76
2023/08/22 10:59:19;;;;;;;;;5.00;5.00;;;;;25.86;35.96;101307.73;109996;1266;20280;-76
2023/08/22 11:01:45;;;;;;;;;5.00;5.00;;;;;25.80;35.70;101304.61;110010;1251;19695;-76
2023/08/22 11:04:13;;;;;;;;;7.00;7.00;;;;;25.78;35.86;101296.13;110007;1251;20772;-76
2023/08/22 11:06:39;;;;;;;;;3.00;3.00;;;;;25.72;36.17;101291.86;110013;1265;21544;-76